TFM - Tactical Decision Aid (Experimental) INFO Settings
ID: Runway Winds: CIG/VIS Threshold: METAR Board: Map:

KDNL - Augusta-Daniel Field

Updated at: 1114 UTC 13 Dec 2017
Latest TAF at: 0847 UTC 13 Dec 2017

TAF Board

Time1053Z13/12Z13/13Z13/14Z13/15Z13/16Z13/17Z13/18Z13/19Z13/20Z13/21Z13/22Z13/23Z14/00Z
TypeOBSPRVLPRVLPRVLPRVLPRVLPRVLPRVLPRVLPRVLPRVLPRVLPRVLPRVL
VIS10>6>6>6>6>6>6>6>6>6>6>6>6>6
CIG----------------------------
CoverCLRSKCSKCSKCSKCSKCSKCSKCSKCSKCSKCSKCSKCSKC
FltCatVFRVFRVFRVFRVFRVFRVFRVFRVFRVFRVFRVFRVFRVFR
WX----------------------------
WDir290290290260260260260260260260260260260260
WSpd78888888888888
WGst----------------------------
TAF
KDNL 130847Z 1309/1406 29008KT P6SM SKC
  FM131400 26008KT P6SM SKC


METAR
KDNL 131053Z AUTO 29007KT 10SM CLR 01/M11 A3000 RMK AO2 SLP160 T00111106
KDNL 130953Z AUTO 30006KT 10SM CLR 02/M10 A2999 RMK AO2 SLP155 T00171100

TAF/METAR Board Legend

Potential Impact
  None Marginal Slight Moderate High
Visibility (sm) >5 3≤X≤5 2≤X<3 1≤X<2 <1
Ceiling (100 ft) >30 10≤X≤30 8≤X<10 5≤X<8 <5
Wind Speed (kt) <10 10≤X<20 20≤X<30 ≥30
Wind Gust (kt) <15 15≤X<25 25≤X<35 ≥35
Weather No Wx Reported VCTS -TS,-FZRA TS,FZRA +TS,+FZRA